Terminal Aerodrome Forecast
Issued by NWS

Home | Current Version | Previous Version | Text Only | Print | Product List | Glossary Off
Versions: 1 2 3 4 5 6 7 8 9 10 11 12 13 14

493
FTUS43 KMPX 221120
TAFRNH
TAF
KRNH 221120Z 2212/2312 17009KT P6SM SCT050 OVC120
     FM221600 18012G19KT P6SM BKN150
     FM230200 17009KT P6SM SCT150 WS020/19040KT
     FM230800 19011KT P6SM SCT200=

USA.gov is the U.S. government's official web portal to all federal, state and local government web resources and services.